sensor_id;sensor_type;location;lat;lon;timestamp;P1;durP1;ratioP1;P2;durP2;ratioP2
81801;SDS011;71199;52.490;5.448;2023-07-29T00:00:31;8.17;;;5.10;;
81801;SDS011;71199;52.490;5.448;2023-07-29T00:02:57;7.35;;;5.30;;
81801;SDS011;71199;52.490;5.448;2023-07-29T00:05:23;8.82;;;5.05;;
81801;SDS011;71199;52.490;5.448;2023-07-29T00:07:48;6.90;;;4.47;;
81801;SDS011;71199;52.490;5.448;2023-07-29T00:10:13;9.03;;;4.20;;
81801;SDS011;71199;52.490;5.448;2023-07-29T00:12:39;6.07;;;4.07;;
81801;SDS011;71199;52.490;5.448;2023-07-29T00:15:04;7.50;;;3.87;;
81801;SDS011;71199;52.490;5.448;2023-07-29T00:17:30;7.28;;;3.90;;
81801;SDS011;71199;52.490;5.448;2023-07-29T00:19:55;5.37;;;3.70;;
81801;SDS011;71199;52.490;5.448;2023-07-29T00:22:21;6.60;;;3.53;;
81801;SDS011;71199;52.490;5.448;2023-07-29T00:24:51;6.40;;;2.80;;
81801;SDS011;71199;52.490;5.448;2023-07-29T00:27:25;5.60;;;3.05;;
81801;SDS011;71199;52.490;5.448;2023-07-29T00:29:51;8.15;;;2.95;;
81801;SDS011;71199;52.490;5.448;2023-07-29T00:32:16;7.50;;;3.70;;
81801;SDS011;71199;52.490;5.448;2023-07-29T00:34:41;6.15;;;2.65;;
81801;SDS011;71199;52.490;5.448;2023-07-29T00:37:07;9.80;;;3.23;;
81801;SDS011;71199;52.490;5.448;2023-07-29T00:39:32;3.38;;;2.28;;
81801;SDS011;71199;52.490;5.448;2023-07-29T00:41:58;8.32;;;2.50;;
81801;SDS011;71199;52.490;5.448;2023-07-29T00:44:24;4.43;;;2.38;;
81801;SDS011;71199;52.490;5.448;2023-07-29T00:46:52;4.57;;;2.20;;
81801;SDS011;71199;52.490;5.448;2023-07-29T00:49:18;5.85;;;2.40;;
81801;SDS011;71199;52.490;5.448;2023-07-29T00:51:44;5.25;;;1.98;;
81801;SDS011;71199;52.490;5.448;2023-07-29T00:54:10;4.18;;;2.05;;
81801;SDS011;71199;52.490;5.448;2023-07-29T00:56:35;3.92;;;2.00;;
81801;SDS011;71199;52.490;5.448;2023-07-29T00:59:02;2.67;;;1.80;;
81801;SDS011;71199;52.490;5.448;2023-07-29T01:01:27;5.38;;;2.00;;
81801;SDS011;71199;52.490;5.448;2023-07-29T01:03:54;4.28;;;1.65;;
81801;SDS011;71199;52.490;5.448;2023-07-29T01:06:28;3.13;;;1.67;;
81801;SDS011;71199;52.490;5.448;2023-07-29T01:16:42;4.90;;;1.75;;
81801;SDS011;71199;52.490;5.448;2023-07-29T01:19:14;3.95;;;1.73;;
81801;SDS011;71199;52.490;5.448;2023-07-29T01:22:04;2.58;;;1.50;;
81801;SDS011;71199;52.490;5.448;2023-07-29T01:29:21;8.03;;;2.53;;
81801;SDS011;71199;52.490;5.448;2023-07-29T01:31:47;4.20;;;1.60;;
81801;SDS011;71199;52.490;5.448;2023-07-29T01:34:20;4.38;;;1.77;;
81801;SDS011;71199;52.490;5.448;2023-07-29T01:36:51;3.78;;;1.83;;
81801;SDS011;71199;52.490;5.448;2023-07-29T01:39:20;5.60;;;1.70;;
81801;SDS011;71199;52.490;5.448;2023-07-29T01:41:47;3.17;;;1.70;;
81801;SDS011;71199;52.490;5.448;2023-07-29T01:44:13;4.93;;;1.42;;
81801;SDS011;71199;52.490;5.448;2023-07-29T01:46:39;6.03;;;1.85;;
81801;SDS011;71199;52.490;5.448;2023-07-29T01:49:05;4.70;;;1.92;;
81801;SDS011;71199;52.490;5.448;2023-07-29T01:51:30;3.23;;;1.50;;
81801;SDS011;71199;52.490;5.448;2023-07-29T01:53:55;3.50;;;1.52;;
81801;SDS011;71199;52.490;5.448;2023-07-29T01:56:21;5.53;;;1.97;;
81801;SDS011;71199;52.490;5.448;2023-07-29T01:58:46;6.70;;;2.00;;
81801;SDS011;71199;52.490;5.448;2023-07-29T02:01:12;4.73;;;1.67;;
81801;SDS011;71199;52.490;5.448;2023-07-29T02:03:37;7.18;;;1.70;;
81801;SDS011;71199;52.490;5.448;2023-07-29T02:06:03;3.63;;;1.92;;
81801;SDS011;71199;52.490;5.448;2023-07-29T02:08:28;3.40;;;1.70;;
81801;SDS011;71199;52.490;5.448;2023-07-29T02:10:54;2.83;;;1.70;;
81801;SDS011;71199;52.490;5.448;2023-07-29T02:13:19;6.93;;;1.88;;
81801;SDS011;71199;52.490;5.448;2023-07-29T02:15:44;4.63;;;2.20;;
81801;SDS011;71199;52.490;5.448;2023-07-29T02:18:10;3.70;;;1.95;;
81801;SDS011;71199;52.490;5.448;2023-07-29T02:20:35;6.37;;;1.97;;
81801;SDS011;71199;52.490;5.448;2023-07-29T02:23:00;3.53;;;1.90;;
81801;SDS011;71199;52.490;5.448;2023-07-29T02:25:26;10.00;;;2.03;;
81801;SDS011;71199;52.490;5.448;2023-07-29T02:27:51;4.73;;;2.00;;
81801;SDS011;71199;52.490;5.448;2023-07-29T02:30:16;5.70;;;1.97;;
81801;SDS011;71199;52.490;5.448;2023-07-29T02:32:42;3.50;;;1.65;;
81801;SDS011;71199;52.490;5.448;2023-07-29T02:35:07;3.78;;;2.05;;
81801;SDS011;71199;52.490;5.448;2023-07-29T02:37:33;5.35;;;1.85;;
81801;SDS011;71199;52.490;5.448;2023-07-29T02:39:58;4.53;;;1.70;;
81801;SDS011;71199;52.490;5.448;2023-07-29T02:42:24;4.00;;;1.80;;
81801;SDS011;71199;52.490;5.448;2023-07-29T02:44:49;4.17;;;1.77;;
81801;SDS011;71199;52.490;5.448;2023-07-29T02:47:14;5.93;;;2.23;;
81801;SDS011;71199;52.490;5.448;2023-07-29T02:49:40;6.53;;;2.00;;
81801;SDS011;71199;52.490;5.448;2023-07-29T02:52:05;4.43;;;1.87;;
81801;SDS011;71199;52.490;5.448;2023-07-29T02:54:30;3.10;;;2.03;;
81801;SDS011;71199;52.490;5.448;2023-07-29T02:56:56;4.80;;;1.70;;
81801;SDS011;71199;52.490;5.448;2023-07-29T02:59:21;5.15;;;2.17;;
81801;SDS011;71199;52.490;5.448;2023-07-29T03:01:47;4.77;;;2.00;;
81801;SDS011;71199;52.490;5.448;2023-07-29T03:04:12;11.00;;;2.07;;
81801;SDS011;71199;52.490;5.448;2023-07-29T03:06:40;6.47;;;2.80;;
81801;SDS011;71199;52.490;5.448;2023-07-29T03:09:05;4.85;;;2.50;;
81801;SDS011;71199;52.490;5.448;2023-07-29T03:11:31;10.82;;;2.47;;
81801;SDS011;71199;52.490;5.448;2023-07-29T03:13:56;7.20;;;2.20;;
81801;SDS011;71199;52.490;5.448;2023-07-29T03:16:22;4.53;;;2.45;;
81801;SDS011;71199;52.490;5.448;2023-07-29T03:18:48;9.55;;;2.72;;
81801;SDS011;71199;52.490;5.448;2023-07-29T03:21:14;5.53;;;2.17;;
81801;SDS011;71199;52.490;5.448;2023-07-29T03:23:39;8.40;;;2.70;;
81801;SDS011;71199;52.490;5.448;2023-07-29T03:26:05;6.30;;;2.92;;
81801;SDS011;71199;52.490;5.448;2023-07-29T03:28:40;5.90;;;2.75;;
81801;SDS011;71199;52.490;5.448;2023-07-29T03:31:06;8.85;;;3.65;;
81801;SDS011;71199;52.490;5.448;2023-07-29T03:33:32;4.10;;;2.33;;
81801;SDS011;71199;52.490;5.448;2023-07-29T03:35:58;7.43;;;2.47;;
81801;SDS011;71199;52.490;5.448;2023-07-29T03:38:24;8.18;;;2.67;;
81801;SDS011;71199;52.490;5.448;2023-07-29T03:40:50;9.13;;;2.45;;
81801;SDS011;71199;52.490;5.448;2023-07-29T03:43:15;6.30;;;2.60;;
81801;SDS011;71199;52.490;5.448;2023-07-29T03:45:41;7.28;;;2.30;;
81801;SDS011;71199;52.490;5.448;2023-07-29T03:48:06;9.35;;;3.13;;
81801;SDS011;71199;52.490;5.448;2023-07-29T03:50:33;8.35;;;3.05;;
81801;SDS011;71199;52.490;5.448;2023-07-29T03:53:05;6.82;;;2.80;;
81801;SDS011;71199;52.490;5.448;2023-07-29T03:55:31;11.90;;;3.50;;
81801;SDS011;71199;52.490;5.448;2023-07-29T03:57:57;7.60;;;2.65;;
81801;SDS011;71199;52.490;5.448;2023-07-29T04:00:26;8.18;;;3.30;;
81801;SDS011;71199;52.490;5.448;2023-07-29T04:02:51;12.38;;;2.88;;
81801;SDS011;71199;52.490;5.448;2023-07-29T04:05:17;6.82;;;3.20;;
81801;SDS011;71199;52.490;5.448;2023-07-29T04:07:43;7.22;;;2.67;;
81801;SDS011;71199;52.490;5.448;2023-07-29T04:10:08;4.30;;;2.50;;
81801;SDS011;71199;52.490;5.448;2023-07-29T04:12:34;9.57;;;2.80;;
81801;SDS011;71199;52.490;5.448;2023-07-29T04:14:59;6.75;;;2.90;;
81801;SDS011;71199;52.490;5.448;2023-07-29T04:17:25;6.50;;;2.92;;
81801;SDS011;71199;52.490;5.448;2023-07-29T04:19:50;10.13;;;3.10;;
81801;SDS011;71199;52.490;5.448;2023-07-29T04:22:15;7.93;;;3.22;;
81801;SDS011;71199;52.490;5.448;2023-07-29T04:24:41;7.53;;;3.22;;
81801;SDS011;71199;52.490;5.448;2023-07-29T04:27:07;9.82;;;3.28;;
81801;SDS011;71199;52.490;5.448;2023-07-29T04:29:32;6.70;;;3.17;;
81801;SDS011;71199;52.490;5.448;2023-07-29T04:31:57;7.55;;;3.70;;
81801;SDS011;71199;52.490;5.448;2023-07-29T04:34:23;5.97;;;3.00;;
81801;SDS011;71199;52.490;5.448;2023-07-29T04:36:48;6.35;;;2.80;;
81801;SDS011;71199;52.490;5.448;2023-07-29T04:39:14;5.95;;;2.85;;
81801;SDS011;71199;52.490;5.448;2023-07-29T04:41:39;5.57;;;2.67;;
81801;SDS011;71199;52.490;5.448;2023-07-29T04:44:05;6.68;;;2.60;;
81801;SDS011;71199;52.490;5.448;2023-07-29T04:46:30;6.85;;;3.00;;
81801;SDS011;71199;52.490;5.448;2023-07-29T04:48:56;8.82;;;2.90;;
81801;SDS011;71199;52.490;5.448;2023-07-29T04:51:21;6.50;;;2.50;;
81801;SDS011;71199;52.490;5.448;2023-07-29T04:53:47;8.15;;;3.30;;
81801;SDS011;71199;52.490;5.448;2023-07-29T04:56:13;8.35;;;2.72;;
81801;SDS011;71199;52.490;5.448;2023-07-29T04:58:38;8.33;;;2.60;;
81801;SDS011;71199;52.490;5.448;2023-07-29T05:01:03;8.03;;;2.97;;
81801;SDS011;71199;52.490;5.448;2023-07-29T05:03:29;5.93;;;2.78;;
81801;SDS011;71199;52.490;5.448;2023-07-29T05:05:55;6.65;;;2.85;;
81801;SDS011;71199;52.490;5.448;2023-07-29T05:08:22;6.13;;;2.70;;
81801;SDS011;71199;52.490;5.448;2023-07-29T05:10:51;8.45;;;3.45;;
81801;SDS011;71199;52.490;5.448;2023-07-29T05:13:17;6.55;;;2.78;;
81801;SDS011;71199;52.490;5.448;2023-07-29T05:15:43;7.70;;;3.03;;
81801;SDS011;71199;52.490;5.448;2023-07-29T05:18:08;12.20;;;3.00;;
81801;SDS011;71199;52.490;5.448;2023-07-29T05:20:34;7.50;;;2.97;;
81801;SDS011;71199;52.490;5.448;2023-07-29T05:22:59;7.32;;;3.45;;
81801;SDS011;71199;52.490;5.448;2023-07-29T05:25:25;6.05;;;2.65;;
81801;SDS011;71199;52.490;5.448;2023-07-29T05:27:51;5.80;;;2.47;;
81801;SDS011;71199;52.490;5.448;2023-07-29T05:30:16;6.90;;;2.80;;
81801;SDS011;71199;52.490;5.448;2023-07-29T05:32:42;6.28;;;3.17;;
81801;SDS011;71199;52.490;5.448;2023-07-29T05:35:07;6.90;;;2.70;;
81801;SDS011;71199;52.490;5.448;2023-07-29T05:37:33;7.63;;;3.00;;
81801;SDS011;71199;52.490;5.448;2023-07-29T05:39:58;5.20;;;3.03;;
81801;SDS011;71199;52.490;5.448;2023-07-29T05:42:24;5.88;;;2.85;;
81801;SDS011;71199;52.490;5.448;2023-07-29T05:44:49;9.95;;;2.83;;
81801;SDS011;71199;52.490;5.448;2023-07-29T05:47:15;6.45;;;2.63;;
81801;SDS011;71199;52.490;5.448;2023-07-29T05:49:40;6.05;;;3.00;;
81801;SDS011;71199;52.490;5.448;2023-07-29T05:52:06;4.38;;;2.60;;
81801;SDS011;71199;52.490;5.448;2023-07-29T05:54:31;7.03;;;2.35;;
81801;SDS011;71199;52.490;5.448;2023-07-29T05:56:57;6.40;;;3.07;;
81801;SDS011;71199;52.490;5.448;2023-07-29T05:59:22;9.10;;;3.00;;
81801;SDS011;71199;52.490;5.448;2023-07-29T06:01:47;6.57;;;2.88;;
81801;SDS011;71199;52.490;5.448;2023-07-29T06:04:13;9.10;;;3.05;;
81801;SDS011;71199;52.490;5.448;2023-07-29T06:06:38;7.20;;;2.70;;
81801;SDS011;71199;52.490;5.448;2023-07-29T06:09:03;6.38;;;2.63;;
81801;SDS011;71199;52.490;5.448;2023-07-29T06:11:29;5.18;;;2.72;;
81801;SDS011;71199;52.490;5.448;2023-07-29T06:13:54;5.60;;;2.88;;
81801;SDS011;71199;52.490;5.448;2023-07-29T06:16:20;5.00;;;2.83;;
81801;SDS011;71199;52.490;5.448;2023-07-29T06:18:45;10.63;;;3.80;;
81801;SDS011;71199;52.490;5.448;2023-07-29T06:21:10;7.87;;;3.50;;
81801;SDS011;71199;52.490;5.448;2023-07-29T06:23:41;6.95;;;3.08;;
81801;SDS011;71199;52.490;5.448;2023-07-29T06:26:07;6.22;;;2.92;;
81801;SDS011;71199;52.490;5.448;2023-07-29T06:28:32;5.50;;;2.93;;
81801;SDS011;71199;52.490;5.448;2023-07-29T06:30:58;6.57;;;3.20;;
81801;SDS011;71199;52.490;5.448;2023-07-29T06:33:23;8.63;;;3.20;;
81801;SDS011;71199;52.490;5.448;2023-07-29T06:35:48;4.45;;;2.92;;
81801;SDS011;71199;52.490;5.448;2023-07-29T06:38:14;7.53;;;3.37;;
81801;SDS011;71199;52.490;5.448;2023-07-29T06:40:39;6.40;;;3.08;;
81801;SDS011;71199;52.490;5.448;2023-07-29T06:43:04;6.47;;;3.20;;
81801;SDS011;71199;52.490;5.448;2023-07-29T06:45:30;8.02;;;3.40;;
81801;SDS011;71199;52.490;5.448;2023-07-29T06:47:55;5.75;;;2.60;;
81801;SDS011;71199;52.490;5.448;2023-07-29T06:50:21;6.65;;;3.35;;
81801;SDS011;71199;52.490;5.448;2023-07-29T06:52:46;7.25;;;2.58;;
81801;SDS011;71199;52.490;5.448;2023-07-29T06:55:11;8.40;;;3.13;;
81801;SDS011;71199;52.490;5.448;2023-07-29T06:57:37;6.73;;;2.90;;
81801;SDS011;71199;52.490;5.448;2023-07-29T07:00:03;7.70;;;3.00;;
81801;SDS011;71199;52.490;5.448;2023-07-29T07:02:29;6.28;;;3.10;;
81801;SDS011;71199;52.490;5.448;2023-07-29T07:04:54;5.82;;;3.13;;
81801;SDS011;71199;52.490;5.448;2023-07-29T07:07:19;9.52;;;3.28;;
81801;SDS011;71199;52.490;5.448;2023-07-29T07:09:45;7.50;;;3.30;;
81801;SDS011;71199;52.490;5.448;2023-07-29T07:12:10;6.35;;;2.70;;
81801;SDS011;71199;52.490;5.448;2023-07-29T07:14:36;5.47;;;2.50;;
81801;SDS011;71199;52.490;5.448;2023-07-29T07:17:02;12.02;;;2.60;;
81801;SDS011;71199;52.490;5.448;2023-07-29T07:19:27;8.45;;;3.08;;
81801;SDS011;71199;52.490;5.448;2023-07-29T07:21:52;6.80;;;3.27;;
81801;SDS011;71199;52.490;5.448;2023-07-29T07:24:18;8.60;;;2.67;;
81801;SDS011;71199;52.490;5.448;2023-07-29T07:26:43;5.67;;;3.50;;
81801;SDS011;71199;52.490;5.448;2023-07-29T07:29:08;9.27;;;3.20;;
81801;SDS011;71199;52.490;5.448;2023-07-29T07:31:34;7.33;;;2.90;;
81801;SDS011;71199;52.490;5.448;2023-07-29T07:34:00;6.65;;;2.90;;
81801;SDS011;71199;52.490;5.448;2023-07-29T07:36:27;8.32;;;3.10;;
81801;SDS011;71199;52.490;5.448;2023-07-29T07:38:52;6.53;;;3.03;;
81801;SDS011;71199;52.490;5.448;2023-07-29T07:41:18;8.27;;;3.47;;
81801;SDS011;71199;52.490;5.448;2023-07-29T07:43:43;8.33;;;3.30;;
81801;SDS011;71199;52.490;5.448;2023-07-29T07:46:08;6.63;;;3.63;;
81801;SDS011;71199;52.490;5.448;2023-07-29T07:48:34;5.70;;;2.63;;
81801;SDS011;71199;52.490;5.448;2023-07-29T07:50:59;8.17;;;3.60;;
81801;SDS011;71199;52.490;5.448;2023-07-29T07:53:24;9.63;;;3.00;;
81801;SDS011;71199;52.490;5.448;2023-07-29T07:55:53;7.55;;;2.50;;
81801;SDS011;71199;52.490;5.448;2023-07-29T07:58:18;7.53;;;2.85;;
81801;SDS011;71199;52.490;5.448;2023-07-29T08:00:43;6.97;;;2.90;;
81801;SDS011;71199;52.490;5.448;2023-07-29T08:03:09;8.85;;;2.70;;
81801;SDS011;71199;52.490;5.448;2023-07-29T08:05:34;4.95;;;2.78;;
81801;SDS011;71199;52.490;5.448;2023-07-29T08:08:00;5.57;;;3.00;;
81801;SDS011;71199;52.490;5.448;2023-07-29T08:10:25;7.50;;;3.10;;
81801;SDS011;71199;52.490;5.448;2023-07-29T08:12:51;7.53;;;3.42;;
81801;SDS011;71199;52.490;5.448;2023-07-29T08:15:16;6.60;;;2.83;;
81801;SDS011;71199;52.490;5.448;2023-07-29T08:17:41;4.50;;;2.57;;
81801;SDS011;71199;52.490;5.448;2023-07-29T08:20:07;8.02;;;2.42;;
81801;SDS011;71199;52.490;5.448;2023-07-29T08:22:32;4.32;;;2.55;;
81801;SDS011;71199;52.490;5.448;2023-07-29T08:24:58;3.40;;;2.33;;
81801;SDS011;71199;52.490;5.448;2023-07-29T08:27:23;4.60;;;2.60;;
81801;SDS011;71199;52.490;5.448;2023-07-29T08:29:48;7.40;;;2.50;;
81801;SDS011;71199;52.490;5.448;2023-07-29T08:32:14;5.90;;;2.20;;
81801;SDS011;71199;52.490;5.448;2023-07-29T08:34:39;5.38;;;2.10;;
81801;SDS011;71199;52.490;5.448;2023-07-29T08:37:05;4.93;;;2.50;;
81801;SDS011;71199;52.490;5.448;2023-07-29T08:39:30;5.05;;;2.10;;
81801;SDS011;71199;52.490;5.448;2023-07-29T08:42:03;5.47;;;2.27;;
81801;SDS011;71199;52.490;5.448;2023-07-29T08:44:30;5.63;;;2.60;;
81801;SDS011;71199;52.490;5.448;2023-07-29T08:47:01;6.20;;;2.85;;
81801;SDS011;71199;52.490;5.448;2023-07-29T08:49:26;5.95;;;3.20;;
81801;SDS011;71199;52.490;5.448;2023-07-29T08:51:53;6.05;;;3.13;;
81801;SDS011;71199;52.490;5.448;2023-07-29T08:54:20;9.98;;;3.25;;
81801;SDS011;71199;52.490;5.448;2023-07-29T08:56:46;4.88;;;3.20;;
81801;SDS011;71199;52.490;5.448;2023-07-29T08:59:12;7.50;;;3.25;;
81801;SDS011;71199;52.490;5.448;2023-07-29T09:01:38;4.22;;;2.95;;
81801;SDS011;71199;52.490;5.448;2023-07-29T09:04:04;7.43;;;2.78;;
81801;SDS011;71199;52.490;5.448;2023-07-29T09:06:30;5.38;;;2.63;;
81801;SDS011;71199;52.490;5.448;2023-07-29T09:08:56;5.05;;;2.55;;
81801;SDS011;71199;52.490;5.448;2023-07-29T09:11:23;4.72;;;2.30;;
81801;SDS011;71199;52.490;5.448;2023-07-29T09:13:49;8.75;;;2.95;;
81801;SDS011;71199;52.490;5.448;2023-07-29T09:16:14;3.67;;;2.37;;
81801;SDS011;71199;52.490;5.448;2023-07-29T09:18:40;4.32;;;2.42;;
81801;SDS011;71199;52.490;5.448;2023-07-29T09:21:05;5.88;;;2.30;;
81801;SDS011;71199;52.490;5.448;2023-07-29T09:23:40;5.32;;;2.30;;
81801;SDS011;71199;52.490;5.448;2023-07-29T09:26:07;4.47;;;2.03;;
81801;SDS011;71199;52.490;5.448;2023-07-29T09:28:37;5.18;;;1.90;;
81801;SDS011;71199;52.490;5.448;2023-07-29T09:31:03;3.90;;;1.90;;
81801;SDS011;71199;52.490;5.448;2023-07-29T09:33:32;7.07;;;2.10;;
81801;SDS011;71199;52.490;5.448;2023-07-29T09:36:00;4.57;;;1.90;;
81801;SDS011;71199;52.490;5.448;2023-07-29T09:38:26;3.88;;;1.70;;
81801;SDS011;71199;52.490;5.448;2023-07-29T09:40:54;3.22;;;1.70;;
81801;SDS011;71199;52.490;5.448;2023-07-29T09:43:24;7.60;;;1.98;;
81801;SDS011;71199;52.490;5.448;2023-07-29T09:45:51;3.67;;;1.95;;
81801;SDS011;71199;52.490;5.448;2023-07-29T09:48:19;8.35;;;2.33;;
81801;SDS011;71199;52.490;5.448;2023-07-29T09:50:47;4.43;;;1.95;;
81801;SDS011;71199;52.490;5.448;2023-07-29T09:53:13;6.25;;;1.90;;
81801;SDS011;71199;52.490;5.448;2023-07-29T09:55:39;4.85;;;1.75;;
81801;SDS011;71199;52.490;5.448;2023-07-29T09:58:05;4.72;;;2.50;;
81801;SDS011;71199;52.490;5.448;2023-07-29T10:00:33;4.88;;;2.10;;
81801;SDS011;71199;52.490;5.448;2023-07-29T10:02:58;5.75;;;2.78;;
81801;SDS011;71199;52.490;5.448;2023-07-29T10:05:28;5.97;;;2.33;;
81801;SDS011;71199;52.490;5.448;2023-07-29T10:07:54;4.78;;;1.92;;
81801;SDS011;71199;52.490;5.448;2023-07-29T10:12:46;6.57;;;2.23;;
81801;SDS011;71199;52.490;5.448;2023-07-29T10:15:12;8.20;;;2.78;;
81801;SDS011;71199;52.490;5.448;2023-07-29T10:17:38;8.93;;;2.67;;
81801;SDS011;71199;52.490;5.448;2023-07-29T10:20:05;3.92;;;2.03;;
81801;SDS011;71199;52.490;5.448;2023-07-29T10:22:41;5.65;;;2.22;;
81801;SDS011;71199;52.490;5.448;2023-07-29T10:25:18;7.82;;;2.90;;
81801;SDS011;71199;52.490;5.448;2023-07-29T10:30:18;6.55;;;2.10;;
81801;SDS011;71199;52.490;5.448;2023-07-29T10:32:44;5.32;;;2.35;;
81801;SDS011;71199;52.490;5.448;2023-07-29T10:37:36;5.88;;;2.40;;
81801;SDS011;71199;52.490;5.448;2023-07-29T10:40:05;4.88;;;2.25;;
81801;SDS011;71199;52.490;5.448;2023-07-29T10:42:32;4.95;;;1.85;;
81801;SDS011;71199;52.490;5.448;2023-07-29T10:44:57;9.02;;;3.25;;
81801;SDS011;71199;52.490;5.448;2023-07-29T10:47:26;5.45;;;2.05;;
81801;SDS011;71199;52.490;5.448;2023-07-29T10:49:55;7.00;;;2.38;;
81801;SDS011;71199;52.490;5.448;2023-07-29T10:54:59;4.75;;;2.33;;
81801;SDS011;71199;52.490;5.448;2023-07-29T10:57:34;10.45;;;2.45;;
81801;SDS011;71199;52.490;5.448;2023-07-29T11:00:02;6.82;;;2.70;;
81801;SDS011;71199;52.490;5.448;2023-07-29T11:02:33;8.25;;;2.38;;
81801;SDS011;71199;52.490;5.448;2023-07-29T11:05:04;5.68;;;2.15;;
81801;SDS011;71199;52.490;5.448;2023-07-29T11:07:31;5.55;;;2.47;;
81801;SDS011;71199;52.490;5.448;2023-07-29T11:10:07;5.10;;;2.47;;
81801;SDS011;71199;52.490;5.448;2023-07-29T11:15:22;6.40;;;2.55;;
81801;SDS011;71199;52.490;5.448;2023-07-29T11:17:50;5.18;;;2.03;;
81801;SDS011;71199;52.490;5.448;2023-07-29T11:20:22;5.13;;;2.35;;
81801;SDS011;71199;52.490;5.448;2023-07-29T11:22:49;4.50;;;2.03;;
81801;SDS011;71199;52.490;5.448;2023-07-29T11:25:16;4.20;;;2.10;;
81801;SDS011;71199;52.490;5.448;2023-07-29T11:27:43;4.95;;;2.17;;
81801;SDS011;71199;52.490;5.448;2023-07-29T11:30:10;7.22;;;2.17;;
81801;SDS011;71199;52.490;5.448;2023-07-29T11:32:37;10.02;;;2.25;;
81801;SDS011;71199;52.490;5.448;2023-07-29T11:37:29;4.18;;;1.98;;
81801;SDS011;71199;52.490;5.448;2023-07-29T11:39:55;5.13;;;2.05;;
81801;SDS011;71199;52.490;5.448;2023-07-29T11:42:20;5.10;;;2.08;;
81801;SDS011;71199;52.490;5.448;2023-07-29T11:44:46;5.07;;;2.13;;
81801;SDS011;71199;52.490;5.448;2023-07-29T11:47:12;5.63;;;2.30;;
81801;SDS011;71199;52.490;5.448;2023-07-29T11:49:38;7.85;;;2.15;;
81801;SDS011;71199;52.490;5.448;2023-07-29T11:52:08;6.70;;;2.15;;
81801;SDS011;71199;52.490;5.448;2023-07-29T11:54:35;6.07;;;3.30;;
81801;SDS011;71199;52.490;5.448;2023-07-29T11:57:02;4.55;;;1.67;;
81801;SDS011;71199;52.490;5.448;2023-07-29T11:59:30;5.32;;;2.22;;
81801;SDS011;71199;52.490;5.448;2023-07-29T12:01:58;5.32;;;2.10;;
81801;SDS011;71199;52.490;5.448;2023-07-29T12:04:25;3.92;;;1.98;;
81801;SDS011;71199;52.490;5.448;2023-07-29T12:06:51;8.02;;;2.10;;
81801;SDS011;71199;52.490;5.448;2023-07-29T12:09:16;6.03;;;2.10;;
81801;SDS011;71199;52.490;5.448;2023-07-29T12:11:42;5.07;;;2.00;;
81801;SDS011;71199;52.490;5.448;2023-07-29T12:14:07;6.90;;;2.22;;
81801;SDS011;71199;52.490;5.448;2023-07-29T12:16:42;5.05;;;2.30;;
81801;SDS011;71199;52.490;5.448;2023-07-29T12:19:08;3.85;;;1.70;;
81801;SDS011;71199;52.490;5.448;2023-07-29T12:21:38;5.85;;;2.17;;
81801;SDS011;71199;52.490;5.448;2023-07-29T12:24:03;5.03;;;2.10;;
81801;SDS011;71199;52.490;5.448;2023-07-29T12:26:29;4.70;;;2.08;;
81801;SDS011;71199;52.490;5.448;2023-07-29T12:28:55;4.97;;;2.10;;
81801;SDS011;71199;52.490;5.448;2023-07-29T12:31:21;4.82;;;1.83;;
81801;SDS011;71199;52.490;5.448;2023-07-29T12:33:56;4.10;;;1.55;;
81801;SDS011;71199;52.490;5.448;2023-07-29T12:36:21;3.47;;;1.75;;
81801;SDS011;71199;52.490;5.448;2023-07-29T12:38:46;3.93;;;1.90;;
81801;SDS011;71199;52.490;5.448;2023-07-29T12:41:12;3.27;;;2.00;;
81801;SDS011;71199;52.490;5.448;2023-07-29T12:43:37;6.17;;;2.10;;
81801;SDS011;71199;52.490;5.448;2023-07-29T12:46:02;4.83;;;2.40;;
81801;SDS011;71199;52.490;5.448;2023-07-29T12:48:28;5.33;;;2.00;;
81801;SDS011;71199;52.490;5.448;2023-07-29T12:50:53;5.37;;;2.33;;
81801;SDS011;71199;52.490;5.448;2023-07-29T12:53:18;9.10;;;2.90;;
81801;SDS011;71199;52.490;5.448;2023-07-29T12:55:44;7.05;;;2.95;;
81801;SDS011;71199;52.490;5.448;2023-07-29T12:58:09;7.27;;;2.97;;
81801;SDS011;71199;52.490;5.448;2023-07-29T13:00:34;5.90;;;2.67;;
81801;SDS011;71199;52.490;5.448;2023-07-29T13:03:00;5.30;;;2.63;;
81801;SDS011;71199;52.490;5.448;2023-07-29T13:05:25;5.05;;;2.67;;
81801;SDS011;71199;52.490;5.448;2023-07-29T13:07:51;5.83;;;2.40;;
81801;SDS011;71199;52.490;5.448;2023-07-29T13:10:16;3.73;;;2.30;;
81801;SDS011;71199;52.490;5.448;2023-07-29T13:12:41;4.35;;;2.15;;
81801;SDS011;71199;52.490;5.448;2023-07-29T13:15:07;3.70;;;2.10;;
81801;SDS011;71199;52.490;5.448;2023-07-29T13:17:33;3.42;;;2.00;;
81801;SDS011;71199;52.490;5.448;2023-07-29T13:19:58;2.20;;;1.50;;
81801;SDS011;71199;52.490;5.448;2023-07-29T13:22:24;3.58;;;1.70;;
81801;SDS011;71199;52.490;5.448;2023-07-29T13:24:49;2.97;;;2.00;;
81801;SDS011;71199;52.490;5.448;2023-07-29T13:27:15;4.15;;;2.10;;
81801;SDS011;71199;52.490;5.448;2023-07-29T13:29:40;2.43;;;1.63;;
81801;SDS011;71199;52.490;5.448;2023-07-29T13:32:06;2.80;;;1.75;;
81801;SDS011;71199;52.490;5.448;2023-07-29T13:34:32;3.90;;;1.80;;
81801;SDS011;71199;52.490;5.448;2023-07-29T13:36:59;2.88;;;1.85;;
81801;SDS011;71199;52.490;5.448;2023-07-29T13:39:25;5.70;;;2.00;;
81801;SDS011;71199;52.490;5.448;2023-07-29T13:41:50;6.87;;;1.90;;
81801;SDS011;71199;52.490;5.448;2023-07-29T13:44:15;2.87;;;1.60;;
81801;SDS011;71199;52.490;5.448;2023-07-29T13:46:41;3.97;;;1.67;;
81801;SDS011;71199;52.490;5.448;2023-07-29T13:49:06;3.65;;;1.60;;
81801;SDS011;71199;52.490;5.448;2023-07-29T13:51:31;5.88;;;1.77;;
81801;SDS011;71199;52.490;5.448;2023-07-29T13:53:57;4.70;;;1.70;;
81801;SDS011;71199;52.490;5.448;2023-07-29T13:56:22;5.95;;;2.42;;
81801;SDS011;71199;52.490;5.448;2023-07-29T13:58:47;4.77;;;1.93;;
81801;SDS011;71199;52.490;5.448;2023-07-29T14:01:13;3.60;;;1.60;;
81801;SDS011;71199;52.490;5.448;2023-07-29T14:03:38;3.07;;;1.63;;
81801;SDS011;71199;52.490;5.448;2023-07-29T14:06:04;3.67;;;1.90;;
81801;SDS011;71199;52.490;5.448;2023-07-29T14:08:29;5.83;;;2.17;;
81801;SDS011;71199;52.490;5.448;2023-07-29T14:10:54;3.83;;;1.50;;
81801;SDS011;71199;52.490;5.448;2023-07-29T14:13:20;5.30;;;2.67;;
81801;SDS011;71199;52.490;5.448;2023-07-29T14:15:45;3.17;;;1.60;;
81801;SDS011;71199;52.490;5.448;2023-07-29T14:18:10;4.50;;;2.00;;
81801;SDS011;71199;52.490;5.448;2023-07-29T14:20:36;5.67;;;1.80;;
81801;SDS011;71199;52.490;5.448;2023-07-29T14:23:01;5.37;;;1.60;;
81801;SDS011;71199;52.490;5.448;2023-07-29T14:25:27;2.83;;;1.63;;
81801;SDS011;71199;52.490;5.448;2023-07-29T14:27:52;3.83;;;1.67;;
81801;SDS011;71199;52.490;5.448;2023-07-29T14:30:17;7.10;;;1.97;;
81801;SDS011;71199;52.490;5.448;2023-07-29T14:32:43;3.25;;;1.80;;
81801;SDS011;71199;52.490;5.448;2023-07-29T14:35:08;3.00;;;1.80;;
81801;SDS011;71199;52.490;5.448;2023-07-29T14:37:34;3.65;;;2.20;;
81801;SDS011;71199;52.490;5.448;2023-07-29T14:40:00;6.18;;;2.80;;
81801;SDS011;71199;52.490;5.448;2023-07-29T14:42:26;4.40;;;1.50;;
81801;SDS011;71199;52.490;5.448;2023-07-29T14:44:52;3.70;;;1.60;;
81801;SDS011;71199;52.490;5.448;2023-07-29T14:47:17;5.32;;;1.95;;
81801;SDS011;71199;52.490;5.448;2023-07-29T14:49:43;5.67;;;1.93;;
81801;SDS011;71199;52.490;5.448;2023-07-29T14:52:09;4.53;;;1.50;;
81801;SDS011;71199;52.490;5.448;2023-07-29T14:54:34;7.45;;;1.75;;
81801;SDS011;71199;52.490;5.448;2023-07-29T14:57:00;5.33;;;1.50;;
81801;SDS011;71199;52.490;5.448;2023-07-29T14:59:25;4.57;;;1.40;;
81801;SDS011;71199;52.490;5.448;2023-07-29T15:01:50;6.83;;;1.90;;
81801;SDS011;71199;52.490;5.448;2023-07-29T15:04:16;3.30;;;1.50;;
81801;SDS011;71199;52.490;5.448;2023-07-29T15:06:41;3.20;;;1.48;;
81801;SDS011;71199;52.490;5.448;2023-07-29T15:09:07;4.68;;;1.90;;